Time;durP1;ratioP1;P1;durP2;ratioP2;P2;SDS_P1;SDS_P2;PMS_P1;PMS_P2;Temp;Humidity;BMP_temperature;BMP_pressure;BME280_temperature;BME280_humidity;BME280_pressure;Samples;Min_cycle;Max_cycle;Signal;HPM_P1;HPM_P2
2023/05/29 00:01:18;;;;;;;19.45;3.67;;;13.20;97.20;;;;;;6215083;23;20474;-73
2023/05/29 00:03:44;;;;;;;13.73;3.05;;;13.10;97.40;;;;;;6243283;23;20004;-73
2023/05/29 00:06:10;;;;;;;17.27;3.55;;;13.10;97.60;;;;;;6243413;23;20464;-72
2023/05/29 00:08:36;;;;;;;21.17;4.88;;;13.10;97.70;;;;;;6243288;23;20000;-72
2023/05/29 00:11:01;;;;;;;10.68;3.63;;;13.00;97.60;;;;;;6243224;23;20009;-72
2023/05/29 00:13:27;;;;;;;18.17;4.22;;;13.00;97.70;;;;;;6242667;23;20399;-73
2023/05/29 00:15:53;;;;;;;18.42;3.58;;;13.00;97.80;;;;;;6242863;23;20004;-72
2023/05/29 00:18:18;;;;;;;17.08;3.35;;;12.90;97.90;;;;;;6215763;23;20035;-73
2023/05/29 00:20:44;;;;;;;19.52;3.97;;;12.90;97.90;;;;;;6243141;23;19997;-73
2023/05/29 00:23:10;;;;;;;17.15;4.18;;;12.90;98.00;;;;;;6214078;23;20004;-73
2023/05/29 00:25:36;;;;;;;14.95;3.28;;;12.80;98.00;;;;;;6242315;23;20007;-72
2023/05/29 00:28:01;;;;;;;22.45;5.25;;;12.80;98.00;;;;;;6214045;23;20100;-72
2023/05/29 00:30:27;;;;;;;12.35;3.00;;;12.80;98.10;;;;;;6240712;23;20018;-73
2023/05/29 00:32:53;;;;;;;16.08;3.95;;;12.70;98.10;;;;;;6241772;23;20003;-72
2023/05/29 00:35:20;;;;;;;12.48;3.08;;;12.70;98.10;;;;;;6241913;23;20805;-72
2023/05/29 00:37:45;;;;;;;18.75;3.83;;;12.70;98.10;;;;;;6243076;23;20007;-72
2023/05/29 00:40:11;;;;;;;10.27;2.65;;;12.70;98.10;;;;;;6242699;23;20363;-72
2023/05/29 00:42:37;;;;;;;17.92;2.92;;;12.70;98.10;;;;;;6242706;23;20341;-72
2023/05/29 00:45:03;;;;;;;16.67;3.75;;;12.60;98.10;;;;;;6242281;23;20000;-72
2023/05/29 00:47:29;;;;;;;23.77;4.05;;;12.60;98.10;;;;;;6242794;23;20007;-73
2023/05/29 00:49:56;;;;;;;13.70;3.05;;;12.50;98.10;;;;;;6242825;23;20418;-72
2023/05/29 00:52:23;;;;;;;12.90;3.25;;;12.50;98.10;;;;;;6242698;23;20004;-72
2023/05/29 00:54:49;;;;;;;11.80;2.42;;;12.50;98.10;;;;;;6242760;23;20365;-72
2023/05/29 00:57:16;;;;;;;17.30;3.20;;;12.50;98.20;;;;;;6242549;23;20004;-72
2023/05/29 00:59:43;;;;;;;11.45;3.35;;;12.40;98.10;;;;;;6242184;23;20000;-72
2023/05/29 01:02:09;;;;;;;16.63;3.60;;;12.40;98.10;;;;;;6215746;23;20209;-72
2023/05/29 01:04:35;;;;;;;14.13;3.42;;;12.40;98.10;;;;;;6215760;23;20310;-73
2023/05/29 01:07:06;;;;;;;15.50;2.85;;;12.30;98.10;;;;;;6242949;23;20010;-72
2023/05/29 01:09:34;;;;;;;13.40;3.25;;;12.30;98.10;;;;;;6242325;23;20004;-72
2023/05/29 01:12:23;;;;;;;13.57;2.53;;;12.30;98.10;;;;;;6242410;22;20032;-72
2023/05/29 01:15:04;;;;;;;15.02;2.60;;;12.20;98.10;;;;;;6242088;23;20000;-73
2023/05/29 01:18:05;;;;;;;15.18;2.75;;;12.20;98.10;;;;;;6242404;23;20299;-72
2023/05/29 01:20:35;;;;;;;16.55;2.90;;;12.10;98.10;;;;;;6215503;23;20004;-72
2023/05/29 01:23:20;;;;;;;12.57;3.30;;;12.10;98.20;;;;;;6242569;23;20000;-73
2023/05/29 01:26:17;;;;;;;13.93;2.67;;;12.10;98.20;;;;;;6242562;23;20000;-72
2023/05/29 01:28:47;;;;;;;11.43;2.28;;;12.10;98.20;;;;;;6242066;23;20004;-73
2023/05/29 01:31:14;;;;;;;17.60;2.95;;;12.00;98.30;;;;;;6242205;23;20006;-72
2023/05/29 01:33:40;;;;;;;18.00;3.05;;;12.00;98.40;;;;;;6242654;23;20007;-73
2023/05/29 01:36:11;;;;;;;13.05;2.80;;;12.00;98.40;;;;;;6242852;23;20034;-72
2023/05/29 01:38:36;;;;;;;11.82;2.47;;;12.00;98.50;;;;;;6242347;23;19996;-73
2023/05/29 01:41:03;;;;;;;15.05;2.53;;;12.00;98.50;;;;;;6242494;23;19999;-72
2023/05/29 01:43:30;;;;;;;12.82;3.33;;;12.00;98.50;;;;;;6241834;23;20325;-73
2023/05/29 01:45:56;;;;;;;18.70;3.30;;;12.00;98.50;;;;;;6242482;23;20008;-72
2023/05/29 01:48:22;;;;;;;18.30;2.78;;;11.90;98.50;;;;;;6242002;23;20620;-72
2023/05/29 01:50:48;;;;;;;15.63;3.45;;;12.00;98.60;;;;;;6242676;23;20035;-72
2023/05/29 01:53:14;;;;;;;15.68;3.20;;;11.80;98.60;;;;;;6215038;23;20000;-72
2023/05/29 01:55:40;;;;;;;10.15;2.03;;;11.90;98.60;;;;;;6242416;23;20008;-72
2023/05/29 01:58:07;;;;;;;15.43;3.50;;;11.90;98.60;;;;;;6214573;23;20004;-72
2023/05/29 02:00:33;;;;;;;14.10;3.10;;;11.90;98.70;;;;;;6242271;23;20321;-72
2023/05/29 02:02:58;;;;;;;12.77;3.05;;;11.80;98.70;;;;;;6242324;23;20023;-72
2023/05/29 02:05:24;;;;;;;10.82;2.50;;;11.80;98.80;;;;;;6215214;23;20015;-72
2023/05/29 02:07:49;;;;;;;16.70;3.90;;;11.80;98.90;;;;;;6242475;23;20011;-72
2023/05/29 02:10:15;;;;;;;15.90;2.83;;;11.80;98.90;;;;;;6242085;23;20001;-73
2023/05/29 02:12:40;;;;;;;19.23;3.67;;;11.80;99.10;;;;;;6241645;23;20004;-73
2023/05/29 02:15:07;;;;;;;17.70;3.35;;;11.70;99.20;;;;;;6242112;23;20013;-73
2023/05/29 02:17:33;;;;;;;18.35;3.85;;;11.70;99.40;;;;;;6242073;23;20000;-73
2023/05/29 02:19:59;;;;;;;14.23;2.70;;;11.70;99.40;;;;;;6242440;23;19997;-73
2023/05/29 02:22:25;;;;;;;14.00;3.53;;;11.60;99.50;;;;;;6215191;23;20012;-72
2023/05/29 02:24:50;;;;;;;15.35;2.92;;;11.60;99.60;;;;;;6243642;23;20000;-73
2023/05/29 02:27:16;;;;;;;12.90;2.47;;;11.60;99.60;;;;;;6215863;23;20035;-73
2023/05/29 02:29:41;;;;;;;13.05;2.65;;;11.50;99.80;;;;;;6244399;23;20003;-73
2023/05/29 02:32:07;;;;;;;18.02;3.70;;;11.50;99.80;;;;;;6243916;23;20306;-73
2023/05/29 02:34:33;;;;;;;18.70;4.07;;;11.50;99.90;;;;;;6243815;23;20146;-73
2023/05/29 02:36:58;;;;;;;22.77;2.97;;;11.40;99.90;;;;;;6243937;23;20367;-72
2023/05/29 02:39:24;;;;;;;17.35;3.60;;;11.40;99.90;;;;;;6243807;23;20071;-72
2023/05/29 02:41:49;;;;;;;17.38;3.58;;;11.40;99.90;;;;;;6243446;23;20000;-73
2023/05/29 02:44:15;;;;;;;12.75;2.40;;;11.30;99.90;;;;;;6243665;23;20000;-73
2023/05/29 02:46:40;;;;;;;17.02;3.65;;;11.40;99.90;;;;;;6244012;23;20071;-73
2023/05/29 02:49:06;;;;;;;11.85;2.47;;;11.30;99.90;;;;;;6243987;23;20004;-73
2023/05/29 02:51:34;;;;;;;19.58;3.72;;;11.30;99.90;;;;;;6243854;23;20004;-73
2023/05/29 02:54:00;;;;;;;20.10;3.17;;;11.40;99.90;;;;;;6244043;23;20004;-73
2023/05/29 02:56:26;;;;;;;13.05;2.67;;;11.20;99.90;;;;;;6242778;23;20012;-72
2023/05/29 02:58:51;;;;;;;17.45;3.30;;;11.20;99.90;;;;;;6243987;23;20038;-73
2023/05/29 03:01:17;;;;;;;17.60;3.33;;;11.20;99.90;;;;;;6243318;23;20406;-73
2023/05/29 03:03:43;;;;;;;19.48;3.38;;;11.20;99.90;;;;;;6244097;23;20027;-73
2023/05/29 03:06:09;;;;;;;15.48;3.72;;;11.20;99.90;;;;;;6243759;23;20426;-73
2023/05/29 03:08:39;;;;;;;15.73;2.72;;;11.20;99.90;;;;;;6243590;23;20004;-73
2023/05/29 03:11:07;;;;;;;11.80;2.88;;;11.10;99.90;;;;;;6243219;23;20011;-73
2023/05/29 03:13:34;;;;;;;16.88;3.55;;;11.10;99.90;;;;;;6243569;23;20022;-73
2023/05/29 03:15:59;;;;;;;13.82;3.28;;;11.10;99.90;;;;;;6243634;23;20044;-73
2023/05/29 03:18:25;;;;;;;13.55;2.80;;;11.00;99.90;;;;;;6243654;23;20060;-73
2023/05/29 03:20:51;;;;;;;18.25;2.55;;;11.00;99.90;;;;;;6243708;23;20004;-72
2023/05/29 03:23:16;;;;;;;18.00;3.20;;;11.00;99.90;;;;;;6243634;23;20000;-72
2023/05/29 03:25:42;;;;;;;11.60;2.90;;;11.00;99.90;;;;;;6242946;23;20004;-72
2023/05/29 03:28:08;;;;;;;16.08;3.03;;;10.90;99.90;;;;;;6243464;23;20090;-72
2023/05/29 03:30:33;;;;;;;10.77;2.40;;;10.90;99.90;;;;;;6243617;23;20007;-72
2023/05/29 03:33:03;;;;;;;17.13;3.65;;;10.90;99.90;;;;;;6216678;23;20065;-72
2023/05/29 03:35:29;;;;;;;17.42;4.47;;;10.90;99.90;;;;;;6242021;23;20082;-72
2023/05/29 03:37:55;;;;;;;14.90;2.83;;;10.90;99.90;;;;;;6243485;23;19996;-72
2023/05/29 03:40:20;;;;;;;15.85;2.80;;;10.80;99.90;;;;;;6242581;23;20007;-73
2023/05/29 03:42:46;;;;;;;12.73;3.25;;;10.80;99.90;;;;;;6243520;23;20042;-73
2023/05/29 03:45:11;;;;;;;13.15;2.47;;;10.80;99.90;;;;;;6242967;23;20011;-73
2023/05/29 03:47:37;;;;;;;13.60;3.20;;;10.90;99.90;;;;;;6243562;23;20073;-72
2023/05/29 03:50:03;;;;;;;11.35;3.20;;;10.80;99.90;;;;;;6243310;23;20439;-73
2023/05/29 03:52:28;;;;;;;14.77;4.22;;;10.80;99.90;;;;;;6243162;23;20009;-73
2023/05/29 03:54:54;;;;;;;18.88;3.85;;;10.80;99.90;;;;;;6242656;23;20017;-73
2023/05/29 03:57:20;;;;;;;19.65;3.00;;;10.80;99.90;;;;;;6243036;23;20008;-73
2023/05/29 03:59:45;;;;;;;20.52;2.95;;;10.80;99.90;;;;;;6243296;23;20076;-72
2023/05/29 04:02:11;;;;;;;15.65;4.05;;;10.80;99.90;;;;;;6242955;23;20000;-73
2023/05/29 04:04:36;;;;;;;19.33;3.25;;;10.90;99.90;;;;;;6243308;23;20437;-72
2023/05/29 04:07:03;;;;;;;15.52;4.13;;;10.90;99.90;;;;;;6243273;23;20008;-73
2023/05/29 04:09:28;;;;;;;9.98;2.78;;;10.90;99.90;;;;;;6240131;23;20004;-72
2023/05/29 04:11:54;;;;;;;20.42;3.25;;;10.90;99.90;;;;;;6242525;23;20105;-72
2023/05/29 04:14:20;;;;;;;20.27;3.05;;;10.90;99.90;;;;;;6241596;23;20008;-72
2023/05/29 04:16:46;;;;;;;18.35;3.38;;;11.00;99.90;;;;;;6243007;23;20445;-72
2023/05/29 04:19:11;;;;;;;16.13;3.55;;;11.00;99.90;;;;;;6242737;23;20032;-73
2023/05/29 04:21:37;;;;;;;18.27;3.03;;;11.10;99.90;;;;;;6242764;23;20008;-73
2023/05/29 04:24:03;;;;;;;16.55;3.70;;;11.10;99.90;;;;;;6242924;23;20027;-73
2023/05/29 04:26:28;;;;;;;17.65;4.28;;;11.10;99.90;;;;;;6242606;23;20019;-73
2023/05/29 04:28:57;;;;;;;15.30;3.78;;;11.10;99.90;;;;;;6243042;23;20061;-73
2023/05/29 04:31:25;;;;;;;14.40;3.10;;;11.10;99.90;;;;;;6215888;23;20105;-73
2023/05/29 04:33:54;;;;;;;20.40;3.42;;;11.10;99.90;;;;;;6242982;23;20094;-73
2023/05/29 04:36:25;;;;;;;18.67;2.85;;;11.10;99.90;;;;;;6242114;23;20012;-74
2023/05/29 04:38:51;;;;;;;14.75;3.30;;;11.10;99.90;;;;;;6242932;23;19996;-73
2023/05/29 04:41:16;;;;;;;16.17;3.50;;;11.10;99.90;;;;;;6242674;23;20067;-73
2023/05/29 04:43:42;;;;;;;17.55;3.33;;;11.10;99.90;;;;;;6243246;23;20030;-73
2023/05/29 04:46:12;;;;;;;18.08;3.28;;;11.10;99.90;;;;;;6243085;23;20004;-73
2023/05/29 04:48:40;;;;;;;15.32;3.30;;;11.10;99.90;;;;;;6242997;23;20342;-72
2023/05/29 04:51:10;;;;;;;17.65;2.47;;;11.10;99.90;;;;;;6215379;23;20426;-72
2023/05/29 04:53:38;;;;;;;17.27;2.78;;;11.10;99.90;;;;;;6243331;23;20004;-72
2023/05/29 04:56:04;;;;;;;14.63;2.88;;;11.20;99.90;;;;;;6242605;23;20008;-72
2023/05/29 04:58:29;;;;;;;29.38;3.42;;;11.20;99.90;;;;;;6241514;23;20010;-72
2023/05/29 05:00:57;;;;;;;12.50;3.00;;;11.20;99.90;;;;;;6240429;23;20100;-72
2023/05/29 05:03:25;;;;;;;15.95;2.83;;;11.20;99.90;;;;;;6238979;23;20007;-72
2023/05/29 05:05:51;;;;;;;19.75;3.30;;;11.30;99.90;;;;;;6241360;23;20083;-72
2023/05/29 05:08:17;;;;;;;15.85;3.20;;;11.30;99.90;;;;;;6214754;23;20011;-71
2023/05/29 05:10:43;;;;;;;16.20;4.35;;;11.30;99.90;;;;;;6241556;23;20004;-72
2023/05/29 05:13:08;;;;;;;28.45;3.92;;;11.30;99.90;;;;;;6242574;23;20418;-72
2023/05/29 05:15:34;;;;;;;19.15;3.05;;;11.30;99.90;;;;;;6242265;23;20099;-72
2023/05/29 05:17:59;;;;;;;13.32;2.90;;;11.30;99.90;;;;;;6242435;23;20004;-73
2023/05/29 05:20:25;;;;;;;21.70;2.78;;;11.40;99.90;;;;;;6241594;23;20000;-73
2023/05/29 05:22:51;;;;;;;22.83;3.53;;;11.40;99.90;;;;;;6215723;23;20303;-73
2023/05/29 05:25:17;;;;;;;11.63;3.03;;;11.50;99.90;;;;;;6215358;23;20011;-72
2023/05/29 05:27:42;;;;;;;16.98;3.20;;;11.40;99.90;;;;;;6242379;23;20015;-72
2023/05/29 05:30:09;;;;;;;22.27;2.85;;;11.50;99.90;;;;;;6242663;23;20071;-73
2023/05/29 05:32:34;;;;;;;18.75;3.70;;;11.50;99.90;;;;;;6215365;23;20334;-73
2023/05/29 05:35:00;;;;;;;11.63;2.90;;;11.50;99.90;;;;;;6241889;23;20024;-74
2023/05/29 05:37:26;;;;;;;17.70;2.63;;;11.60;99.90;;;;;;6242169;23;20007;-73
2023/05/29 05:39:53;;;;;;;18.30;3.10;;;11.60;99.90;;;;;;6242527;23;19996;-73
2023/05/29 05:42:19;;;;;;;16.10;3.17;;;11.70;99.90;;;;;;6215206;23;20004;-75
2023/05/29 05:44:44;;;;;;;17.83;2.63;;;11.70;99.90;;;;;;6242548;23;20383;-74
2023/05/29 05:47:10;;;;;;;14.45;3.88;;;11.70;99.90;;;;;;6242126;23;20080;-72
2023/05/29 05:49:36;;;;;;;16.65;3.00;;;11.60;99.90;;;;;;6241862;23;20016;-72
2023/05/29 05:52:01;;;;;;;15.85;2.97;;;11.80;99.90;;;;;;6242396;23;20004;-72
2023/05/29 05:54:27;;;;;;;14.68;2.58;;;11.80;99.90;;;;;;6242006;23;20000;-72
2023/05/29 05:56:52;;;;;;;12.73;3.05;;;11.80;99.90;;;;;;6242391;23;20004;-72
2023/05/29 05:59:18;;;;;;;10.10;2.05;;;11.90;99.90;;;;;;6243094;23;19992;-73
2023/05/29 06:01:43;;;;;;;12.75;2.42;;;11.90;99.80;;;;;;6217534;23;20084;-73
2023/05/29 06:04:09;;;;;;;12.00;2.83;;;11.90;99.80;;;;;;6243082;23;20346;-72
2023/05/29 06:06:34;;;;;;;17.35;2.50;;;12.00;99.50;;;;;;6244072;23;19996;-72
2023/05/29 06:09:00;;;;;;;16.23;3.03;;;12.00;99.30;;;;;;6243118;23;20007;-73
2023/05/29 06:11:25;;;;;;;14.95;2.60;;;12.00;99.20;;;;;;6243750;23;20011;-73
2023/05/29 06:13:52;;;;;;;19.38;3.33;;;12.10;99.10;;;;;;6244183;23;20414;-72
2023/05/29 06:16:18;;;;;;;14.70;3.28;;;12.10;98.90;;;;;;6243750;23;20005;-73
2023/05/29 06:18:44;;;;;;;13.70;2.58;;;12.20;98.80;;;;;;6243645;23;20030;-73
2023/05/29 06:21:11;;;;;;;9.88;1.75;;;12.30;98.70;;;;;;6244200;23;20068;-72
2023/05/29 06:23:37;;;;;;;13.35;3.35;;;12.30;98.50;;;;;;6244244;23;20026;-72
2023/05/29 06:26:03;;;;;;;15.45;3.05;;;12.30;98.40;;;;;;6243895;23;20307;-72
2023/05/29 06:28:29;;;;;;;10.05;2.67;;;12.40;98.20;;;;;;6243981;23;20008;-73
2023/05/29 06:30:55;;;;;;;14.10;2.88;;;12.50;98.00;;;;;;6244192;23;20019;-73
2023/05/29 06:33:21;;;;;;;18.20;3.95;;;12.50;97.70;;;;;;6243267;23;20019;-73
2023/05/29 06:35:47;;;;;;;13.18;3.05;;;12.50;97.40;;;;;;6244010;23;20030;-74
2023/05/29 06:38:14;;;;;;;10.85;2.67;;;12.50;97.50;;;;;;6243890;23;20004;-73
2023/05/29 06:40:39;;;;;;;14.85;2.45;;;12.60;97.30;;;;;;6244097;23;19996;-73
2023/05/29 06:43:05;;;;;;;10.38;2.42;;;12.70;97.30;;;;;;6243958;23;20076;-73
2023/05/29 06:45:30;;;;;;;9.38;2.22;;;12.70;97.10;;;;;;6243789;23;20012;-72
2023/05/29 06:47:56;;;;;;;7.45;1.67;;;12.80;96.90;;;;;;6243616;23;20020;-73
2023/05/29 06:50:22;;;;;;;10.10;2.85;;;12.80;96.80;;;;;;6244161;23;20095;-73
2023/05/29 06:52:47;;;;;;;11.02;2.67;;;12.80;96.40;;;;;;6244220;23;20007;-72
2023/05/29 06:55:13;;;;;;;17.05;3.05;;;12.90;96.40;;;;;;6216648;23;20008;-73
2023/05/29 06:57:38;;;;;;;19.13;3.28;;;13.00;96.30;;;;;;6244201;23;20010;-73
2023/05/29 07:00:06;;;;;;;15.98;3.22;;;13.00;96.10;;;;;;6243774;23;20365;-73
2023/05/29 07:02:32;;;;;;;13.75;3.42;;;13.10;95.80;;;;;;6216525;23;20004;-73
2023/05/29 07:04:57;;;;;;;11.73;2.47;;;13.10;95.60;;;;;;6243834;23;20452;-73
2023/05/29 07:07:23;;;;;;;17.55;3.75;;;13.10;95.60;;;;;;6243654;23;20083;-73
2023/05/29 07:09:48;;;;;;;14.70;2.92;;;13.20;95.70;;;;;;6243809;23;20000;-74
2023/05/29 07:12:14;;;;;;;9.45;2.20;;;13.30;95.60;;;;;;6243498;23;20028;-73
2023/05/29 07:14:39;;;;;;;14.88;2.67;;;13.30;95.20;;;;;;6216947;23;20015;-73
2023/05/29 07:17:05;;;;;;;12.93;2.25;;;13.30;95.30;;;;;;6216384;23;20008;-73
2023/05/29 07:19:33;;;;;;;8.63;2.63;;;13.50;95.30;;;;;;6243559;23;20081;-73
2023/05/29 07:21:59;;;;;;;12.60;2.83;;;13.60;95.10;;;;;;6243800;23;20001;-73
2023/05/29 07:24:25;;;;;;;11.55;2.55;;;13.60;94.90;;;;;;6243198;23;20011;-73
2023/05/29 07:26:50;;;;;;;12.50;2.20;;;13.70;94.60;;;;;;6243265;23;20020;-74
2023/05/29 07:29:17;;;;;;;12.77;2.22;;;13.80;94.10;;;;;;6243189;23;20027;-73
2023/05/29 07:31:44;;;;;;;11.25;2.58;;;13.90;94.00;;;;;;6243300;23;20406;-73
2023/05/29 07:34:10;;;;;;;10.63;2.42;;;14.00;93.90;;;;;;6243447;23;20008;-72
2023/05/29 07:36:36;;;;;;;13.57;2.13;;;14.00;93.70;;;;;;6243297;23;20470;-73
2023/05/29 07:39:02;;;;;;;11.55;3.70;;;14.10;93.20;;;;;;6243785;23;20473;-73
2023/05/29 07:41:28;;;;;;;10.95;2.25;;;14.10;93.10;;;;;;6243426;23;20024;-72
2023/05/29 07:43:55;;;;;;;9.80;2.50;;;14.20;92.90;;;;;;6243828;23;20011;-73
2023/05/29 07:46:21;;;;;;;10.13;2.65;;;14.30;92.90;;;;;;6215622;23;20342;-73
2023/05/29 07:48:46;;;;;;;14.75;3.25;;;14.40;92.90;;;;;;6243452;23;20007;-73
2023/05/29 07:51:13;;;;;;;11.43;2.40;;;14.50;92.80;;;;;;6242293;23;20000;-72
2023/05/29 07:53:38;;;;;;;10.63;2.15;;;14.60;92.50;;;;;;6242813;23;20008;-72
2023/05/29 07:56:04;;;;;;;10.50;2.13;;;14.60;91.80;;;;;;6242777;23;20008;-72
2023/05/29 07:58:29;;;;;;;7.55;1.80;;;14.60;91.80;;;;;;6215518;23;20050;-72
2023/05/29 08:00:55;;;;;;;10.27;2.53;;;14.60;91.80;;;;;;6242362;23;20002;-72
2023/05/29 08:03:21;;;;;;;6.60;2.10;;;14.70;92.00;;;;;;6242521;23;20004;-72
2023/05/29 08:05:46;;;;;;;9.60;2.13;;;14.90;92.20;;;;;;6243094;23;20380;-72
2023/05/29 08:08:12;;;;;;;10.82;3.10;;;15.00;91.70;;;;;;6242679;23;20008;-72
2023/05/29 08:10:38;;;;;;;11.25;2.78;;;15.10;91.60;;;;;;6242862;23;20422;-72
2023/05/29 08:13:04;;;;;;;13.80;2.58;;;15.20;90.90;;;;;;6243053;23;20315;-71
2023/05/29 08:15:31;;;;;;;10.45;2.60;;;15.20;90.70;;;;;;6241898;23;20039;-71
2023/05/29 08:17:57;;;;;;;9.60;2.55;;;15.10;90.40;;;;;;6242956;23;20028;-72
2023/05/29 08:20:22;;;;;;;12.23;2.45;;;15.10;90.50;;;;;;6242572;23;20023;-71
2023/05/29 08:22:48;;;;;;;9.80;2.33;;;15.20;90.60;;;;;;6242853;23;20027;-72
2023/05/29 08:25:13;;;;;;;7.68;2.20;;;15.20;90.60;;;;;;6242163;23;20000;-72
2023/05/29 08:27:39;;;;;;;15.88;3.10;;;15.40;90.80;;;;;;6242512;23;20410;-72
2023/05/29 08:30:05;;;;;;;12.75;2.20;;;15.50;90.40;;;;;;6241823;23;20004;-72
2023/05/29 08:32:31;;;;;;;9.68;2.60;;;15.50;90.20;;;;;;6242454;23;20004;-72
2023/05/29 08:34:57;;;;;;;12.45;2.45;;;15.50;90.30;;;;;;6242314;23;20054;-72
2023/05/29 08:37:22;;;;;;;11.70;2.25;;;15.60;90.20;;;;;;6242508;23;20004;-72
2023/05/29 08:39:48;;;;;;;9.07;2.25;;;15.80;89.60;;;;;;6242902;23;20027;-71
2023/05/29 08:42:26;;;;;;;10.20;2.20;;;15.70;88.30;;;;;;6241988;23;19996;-71
2023/05/29 08:44:59;;;;;;;7.75;2.30;;;15.70;88.10;;;;;;6241942;23;19997;-72
2023/05/29 08:47:27;;;;;;;13.48;3.72;;;15.70;88.10;;;;;;6241534;23;20090;-72
2023/05/29 08:49:54;;;;;;;10.25;2.17;;;15.80;88.00;;;;;;6242497;23;19992;-72
2023/05/29 08:52:26;;;;;;;10.25;2.72;;;15.80;87.60;;;;;;6215086;23;20066;-72
2023/05/29 08:54:53;;;;;;;10.73;2.08;;;15.90;87.70;;;;;;6215461;23;20027;-72
2023/05/29 08:57:20;;;;;;;8.73;2.60;;;16.00;87.70;;;;;;6241515;23;20004;-72
2023/05/29 08:59:49;;;;;;;14.70;3.55;;;16.00;86.90;;;;;;6242554;23;20422;-72
2023/05/29 09:02:15;;;;;;;8.93;2.33;;;16.10;86.30;;;;;;6242039;23;20007;-72
2023/05/29 09:04:45;;;;;;;9.20;2.45;;;16.20;86.10;;;;;;6242499;23;20326;-72
2023/05/29 09:07:14;;;;;;;13.90;3.05;;;16.20;85.70;;;;;;6215055;23;20091;-72
2023/05/29 09:09:40;;;;;;;7.68;2.22;;;16.30;85.60;;;;;;6242437;23;20004;-73
2023/05/29 09:12:07;;;;;;;12.00;2.67;;;16.30;85.80;;;;;;6241614;23;20003;-72
2023/05/29 09:14:37;;;;;;;12.77;3.00;;;16.40;85.90;;;;;;6242161;23;20071;-73
2023/05/29 09:17:03;;;;;;;10.73;2.25;;;16.50;85.80;;;;;;6241938;23;20066;-71
2023/05/29 09:19:30;;;;;;;8.45;3.00;;;16.70;86.00;;;;;;6241835;23;20004;-70
2023/05/29 09:22:16;;;;;;;9.68;2.60;;;16.80;85.70;;;;;;6242174;23;19996;-70
2023/05/29 09:24:45;;;;;;;9.73;2.80;;;17.00;85.60;;;;;;6242242;23;20058;-70
2023/05/29 09:27:11;;;;;;;8.98;2.80;;;17.10;85.40;;;;;;6240989;23;20039;-70
2023/05/29 09:29:41;;;;;;;14.50;3.45;;;17.30;84.90;;;;;;6242026;23;20000;-70
2023/05/29 09:32:13;;;;;;;8.95;2.22;;;17.40;84.20;;;;;;6242041;23;20330;-70
2023/05/29 09:34:39;;;;;;;11.25;2.40;;;17.40;84.10;;;;;;6241857;23;20000;-70
2023/05/29 09:37:12;;;;;;;8.32;2.53;;;17.50;84.00;;;;;;6214988;23;20012;-70
2023/05/29 09:39:51;;;;;;;9.95;2.28;;;17.50;83.00;;;;;;6241981;23;20050;-70
2023/05/29 09:42:17;;;;;;;9.15;2.03;;;17.40;82.20;;;;;;6241434;23;20503;-70
2023/05/29 09:44:48;;;;;;;8.95;2.20;;;17.40;81.70;;;;;;6241983;23;20041;-70
2023/05/29 09:47:18;;;;;;;8.65;2.08;;;17.30;81.80;;;;;;6241587;23;20016;-70
2023/05/29 09:49:46;;;;;;;6.00;2.17;;;17.40;81.40;;;;;;6242270;23;20106;-70
2023/05/29 09:52:15;;;;;;;8.57;1.90;;;17.40;81.40;;;;;;6241759;23;19996;-71
2023/05/29 09:54:47;;;;;;;11.45;2.63;;;17.40;81.40;;;;;;6242360;23;20050;-70
2023/05/29 09:57:14;;;;;;;12.20;2.85;;;17.50;80.90;;;;;;6240935;23;20501;-69
2023/05/29 09:59:43;;;;;;;9.20;2.22;;;17.50;80.90;;;;;;6242134;23;20062;-69
2023/05/29 10:02:12;;;;;;;12.30;2.70;;;17.60;81.30;;;;;;6241717;23;20000;-70
2023/05/29 10:04:39;;;;;;;7.43;2.50;;;17.70;81.40;;;;;;6240945;23;19996;-69
2023/05/29 10:07:10;;;;;;;9.88;2.58;;;17.80;80.80;;;;;;6241264;23;20000;-70
2023/05/29 10:09:41;;;;;;;10.65;2.58;;;17.80;80.20;;;;;;6240319;23;20012;-69
2023/05/29 10:12:11;;;;;;;8.73;2.78;;;17.90;80.20;;;;;;6240643;23;20032;-69
2023/05/29 10:14:37;;;;;;;6.88;1.88;;;17.90;79.80;;;;;;6239227;23;20074;-71
2023/05/29 10:17:08;;;;;;;8.93;2.70;;;18.00;79.60;;;;;;6241002;23;20017;-69
2023/05/29 10:19:36;;;;;;;10.50;2.70;;;18.00;79.50;;;;;;6239661;23;19996;-70
2023/05/29 10:22:02;;;;;;;7.57;2.20;;;18.10;79.60;;;;;;6214133;23;20016;-70
2023/05/29 10:24:29;;;;;;;10.98;3.13;;;18.10;79.20;;;;;;6240993;23;20000;-70
2023/05/29 10:26:56;;;;;;;5.18;1.85;;;18.30;78.80;;;;;;6241579;23;20080;-70
2023/05/29 10:29:39;;;;;;;8.50;2.97;;;18.40;78.10;;;;;;6214954;23;20530;-70
2023/05/29 10:32:07;;;;;;;6.63;2.42;;;18.50;76.90;;;;;;6241314;23;20015;-70
2023/05/29 10:34:33;;;;;;;10.73;2.72;;;18.50;76.40;;;;;;6241499;23;20004;-70
2023/05/29 10:37:16;;;;;;;9.30;2.42;;;18.50;75.80;;;;;;6241280;23;20015;-70
2023/05/29 10:39:42;;;;;;;10.05;2.47;;;18.50;75.00;;;;;;6241343;23;20007;-70
2023/05/29 10:42:40;;;;;;;8.73;1.88;;;18.50;74.70;;;;;;6241145;23;20444;-71
2023/05/29 10:45:06;;;;;;;7.63;2.90;;;18.60;74.50;;;;;;6241863;23;20000;-70
2023/05/29 10:47:32;;;;;;;8.95;2.85;;;18.60;74.30;;;;;;6243096;23;20422;-71
2023/05/29 10:50:03;;;;;;;7.18;1.85;;;18.70;74.10;;;;;;6243077;23;20410;-71
2023/05/29 10:52:33;;;;;;;9.75;2.60;;;18.70;73.70;;;;;;6242693;23;20648;-71
2023/05/29 10:54:58;;;;;;;8.57;2.50;;;18.80;74.10;;;;;;6242944;23;20072;-70
2023/05/29 10:57:26;;;;;;;12.90;2.67;;;18.90;72.90;;;;;;6216247;23;20367;-70
2023/05/29 11:00:06;;;;;;;8.15;2.55;;;19.00;72.20;;;;;;6243386;23;19996;-71
2023/05/29 11:02:36;;;;;;;7.47;2.58;;;19.00;71.90;;;;;;6243326;23;20008;-70
2023/05/29 11:05:06;;;;;;;7.50;2.00;;;19.00;71.40;;;;;;6243844;23;20000;-70
2023/05/29 11:07:57;;;;;;;10.63;2.55;;;19.00;71.10;;;;;;6243155;23;20000;-70
2023/05/29 11:10:56;;;;;;;5.53;1.73;;;19.00;70.80;;;;;;6242963;23;20031;-70
2023/05/29 11:13:37;;;;;;;24.70;10.77;;;19.00;71.30;;;;;;6242648;23;20023;-70
2023/05/29 11:16:20;;;;;;;15.38;3.13;;;19.10;72.00;;;;;;6243127;23;20074;-71
2023/05/29 11:18:47;;;;;;;8.00;3.03;;;19.20;71.90;;;;;;6243339;23;20000;-70
2023/05/29 11:21:25;;;;;;;17.20;4.57;;;19.20;70.90;;;;;;6242992;23;20020;-70
2023/05/29 11:23:54;;;;;;;12.18;3.22;;;19.20;70.90;;;;;;6242882;23;20038;-70
2023/05/29 11:26:26;;;;;;;9.23;3.00;;;19.20;70.20;;;;;;6242380;23;20036;-70
2023/05/29 11:28:52;;;;;;;9.48;3.53;;;19.20;70.40;;;;;;6243008;23;20004;-71
2023/05/29 11:31:19;;;;;;;7.40;2.65;;;19.20;70.40;;;;;;6215862;23;20115;-70
2023/05/29 11:33:51;;;;;;;8.18;1.65;;;19.30;69.60;;;;;;6243373;23;20004;-70
2023/05/29 11:36:19;;;;;;;8.40;2.50;;;19.30;69.50;;;;;;6243009;23;20062;-70
2023/05/29 11:38:45;;;;;;;10.60;2.65;;;19.30;70.30;;;;;;6242339;23;19996;-69
2023/05/29 11:41:10;;;;;;;11.70;2.83;;;19.40;70.60;;;;;;6242944;23;19996;-69
2023/05/29 11:43:36;;;;;;;10.85;2.42;;;19.50;71.20;;;;;;6243248;23;20035;-70
2023/05/29 11:46:02;;;;;;;11.15;2.70;;;19.60;70.00;;;;;;6243296;23;19996;-70
2023/05/29 11:48:28;;;;;;;11.02;3.20;;;19.70;69.40;;;;;;6242846;23;20004;-70
2023/05/29 11:50:53;;;;;;;10.48;2.70;;;19.70;69.30;;;;;;6242864;23;20020;-71
2023/05/29 11:53:19;;;;;;;8.43;2.65;;;19.80;68.90;;;;;;6215413;23;20027;-70
2023/05/29 11:55:45;;;;;;;9.93;2.65;;;20.00;68.30;;;;;;6242859;23;20158;-70
2023/05/29 11:58:11;;;;;;;8.30;2.78;;;20.00;67.60;;;;;;6242448;23;20000;-70
2023/05/29 12:00:40;;;;;;;12.27;2.58;;;20.00;67.60;;;;;;6243283;23;20045;-70
2023/05/29 12:03:07;;;;;;;13.02;2.80;;;20.00;68.00;;;;;;6242933;23;20419;-70
2023/05/29 12:05:45;;;;;;;10.30;2.20;;;20.10;67.60;;;;;;6242546;23;20000;-70
2023/05/29 12:08:10;;;;;;;6.07;2.30;;;20.20;66.70;;;;;;6242813;23;20014;-70
2023/05/29 12:10:36;;;;;;;10.10;3.33;;;20.20;66.70;;;;;;6216026;23;20027;-71
2023/05/29 12:13:01;;;;;;;10.57;2.83;;;20.20;66.30;;;;;;6243049;23;20034;-70
2023/05/29 12:15:27;;;;;;;7.28;2.50;;;20.30;66.20;;;;;;6242296;23;20004;-69
2023/05/29 12:17:54;;;;;;;10.45;3.20;;;20.30;66.00;;;;;;6242997;23;20000;-70
2023/05/29 12:20:26;;;;;;;11.68;2.30;;;20.40;65.30;;;;;;6241599;23;20011;-71
2023/05/29 12:22:52;;;;;;;9.15;3.10;;;20.40;64.00;;;;;;6242946;23;20079;-70
2023/05/29 12:25:20;;;;;;;11.32;3.15;;;20.30;64.30;;;;;;6242594;23;20047;-70
2023/05/29 12:27:48;;;;;;;10.77;3.60;;;20.40;64.00;;;;;;6215473;23;20287;-70
2023/05/29 12:30:19;;;;;;;12.73;3.03;;;20.20;64.20;;;;;;6241951;23;20000;-70
2023/05/29 12:32:48;;;;;;;8.93;2.95;;;20.20;64.90;;;;;;6242897;23;20419;-70
2023/05/29 12:35:15;;;;;;;9.60;3.08;;;20.20;64.50;;;;;;6241589;23;20007;-70
2023/05/29 12:37:46;;;;;;;9.60;3.03;;;20.20;64.20;;;;;;6241965;23;20000;-70
2023/05/29 12:40:20;;;;;;;9.18;2.45;;;20.30;63.90;;;;;;6242050;23;20000;-70